sensor_id;sensor_type;location;lat;lon;timestamp;pressure;altitude;pressure_sealevel;temperature
20736;BMP180;10528;52.124;5.196;2023-03-26T00:01:33;100580.00;;;15.70
20736;BMP180;10528;52.124;5.196;2023-03-26T00:04:05;100575.00;;;15.70
20736;BMP180;10528;52.124;5.196;2023-03-26T00:06:36;100574.00;;;15.70
20736;BMP180;10528;52.124;5.196;2023-03-26T00:09:09;100580.00;;;15.70
20736;BMP180;10528;52.124;5.196;2023-03-26T00:11:36;100575.00;;;15.70
20736;BMP180;10528;52.124;5.196;2023-03-26T00:14:03;100566.00;;;15.70
20736;BMP180;10528;52.124;5.196;2023-03-26T00:16:32;100579.00;;;15.70
20736;BMP180;10528;52.124;5.196;2023-03-26T00:19:00;100575.00;;;15.70
20736;BMP180;10528;52.124;5.196;2023-03-26T00:21:29;100576.00;;;15.70
20736;BMP180;10528;52.124;5.196;2023-03-26T00:24:04;100574.00;;;15.60
20736;BMP180;10528;52.124;5.196;2023-03-26T00:26:36;100573.00;;;15.60
20736;BMP180;10528;52.124;5.196;2023-03-26T00:29:04;100574.00;;;15.60
20736;BMP180;10528;52.124;5.196;2023-03-26T00:31:34;100571.00;;;15.60
20736;BMP180;10528;52.124;5.196;2023-03-26T00:34:01;100549.00;;;15.60
20736;BMP180;10528;52.124;5.196;2023-03-26T00:36:30;100561.00;;;15.60
20736;BMP180;10528;52.124;5.196;2023-03-26T00:38:57;100552.00;;;15.60
20736;BMP180;10528;52.124;5.196;2023-03-26T00:41:24;100545.00;;;15.60
20736;BMP180;10528;52.124;5.196;2023-03-26T00:43:58;100543.00;;;15.50
20736;BMP180;10528;52.124;5.196;2023-03-26T00:46:28;100546.00;;;15.60
20736;BMP180;10528;52.124;5.196;2023-03-26T00:48:55;100539.00;;;15.60
20736;BMP180;10528;52.124;5.196;2023-03-26T00:51:27;100542.00;;;15.60
20736;BMP180;10528;52.124;5.196;2023-03-26T00:53:55;100533.00;;;15.60
20736;BMP180;10528;52.124;5.196;2023-03-26T00:56:23;100533.00;;;15.60
20736;BMP180;10528;52.124;5.196;2023-03-26T00:58:50;100537.00;;;15.50
20736;BMP180;10528;52.124;5.196;2023-03-26T01:01:26;100527.00;;;15.50
20736;BMP180;10528;52.124;5.196;2023-03-26T01:03:57;100528.00;;;15.50
20736;BMP180;10528;52.124;5.196;2023-03-26T01:06:41;100524.00;;;15.50
20736;BMP180;10528;52.124;5.196;2023-03-26T01:09:17;100520.00;;;15.50
20736;BMP180;10528;52.124;5.196;2023-03-26T01:11:46;100517.00;;;15.50
20736;BMP180;10528;52.124;5.196;2023-03-26T01:14:19;100511.00;;;15.50
20736;BMP180;10528;52.124;5.196;2023-03-26T01:16:54;100496.00;;;15.50
20736;BMP180;10528;52.124;5.196;2023-03-26T01:21:57;100500.00;;;15.50
20736;BMP180;10528;52.124;5.196;2023-03-26T01:24:24;100492.00;;;15.50
20736;BMP180;10528;52.124;5.196;2023-03-26T01:30:39;100481.00;;;15.50
20736;BMP180;10528;52.124;5.196;2023-03-26T01:33:27;100488.00;;;15.40
20736;BMP180;10528;52.124;5.196;2023-03-26T01:41:42;100475.00;;;15.40
20736;BMP180;10528;52.124;5.196;2023-03-26T01:46:53;100465.00;;;15.40
20736;BMP180;10528;52.124;5.196;2023-03-26T01:49:20;100468.00;;;15.40
20736;BMP180;10528;52.124;5.196;2023-03-26T01:51:49;100464.00;;;15.40
20736;BMP180;10528;52.124;5.196;2023-03-26T01:54:21;100467.00;;;15.40
20736;BMP180;10528;52.124;5.196;2023-03-26T02:00:10;100446.00;;;15.40
20736;BMP180;10528;52.124;5.196;2023-03-26T02:05:32;100453.00;;;15.40
20736;BMP180;10528;52.124;5.196;2023-03-26T02:08:27;100437.00;;;15.40
20736;BMP180;10528;52.124;5.196;2023-03-26T02:11:09;100426.00;;;15.40
20736;BMP180;10528;52.124;5.196;2023-03-26T02:13:43;100440.00;;;15.40
20736;BMP180;10528;52.124;5.196;2023-03-26T02:16:14;100445.00;;;15.40
20736;BMP180;10528;52.124;5.196;2023-03-26T02:18:44;100427.00;;;15.50
20736;BMP180;10528;52.124;5.196;2023-03-26T02:21:15;100424.00;;;15.50
20736;BMP180;10528;52.124;5.196;2023-03-26T02:23:52;100418.00;;;15.50
20736;BMP180;10528;52.124;5.196;2023-03-26T02:26:34;100417.00;;;15.50
20736;BMP180;10528;52.124;5.196;2023-03-26T02:29:12;100416.00;;;15.50
20736;BMP180;10528;52.124;5.196;2023-03-26T02:31:42;100411.00;;;15.50
20736;BMP180;10528;52.124;5.196;2023-03-26T02:34:09;100411.00;;;15.50
20736;BMP180;10528;52.124;5.196;2023-03-26T02:36:39;100416.00;;;15.50
20736;BMP180;10528;52.124;5.196;2023-03-26T02:39:09;100409.00;;;15.50
20736;BMP180;10528;52.124;5.196;2023-03-26T02:41:37;100400.00;;;15.60
20736;BMP180;10528;52.124;5.196;2023-03-26T02:44:08;100402.00;;;15.60
20736;BMP180;10528;52.124;5.196;2023-03-26T02:46:57;100404.00;;;15.60
20736;BMP180;10528;52.124;5.196;2023-03-26T02:49:39;100393.00;;;15.60
20736;BMP180;10528;52.124;5.196;2023-03-26T02:52:06;100394.00;;;15.60
20736;BMP180;10528;52.124;5.196;2023-03-26T02:54:35;100401.00;;;15.60
20736;BMP180;10528;52.124;5.196;2023-03-26T02:57:23;100395.00;;;15.60
20736;BMP180;10528;52.124;5.196;2023-03-26T02:59:51;100397.00;;;15.60
20736;BMP180;10528;52.124;5.196;2023-03-26T03:02:36;100392.00;;;15.60
20736;BMP180;10528;52.124;5.196;2023-03-26T03:05:27;100395.00;;;15.60
20736;BMP180;10528;52.124;5.196;2023-03-26T03:08:14;100381.00;;;15.60
20736;BMP180;10528;52.124;5.196;2023-03-26T03:11:17;100387.00;;;15.60
20736;BMP180;10528;52.124;5.196;2023-03-26T03:13:45;100378.00;;;15.70
20736;BMP180;10528;52.124;5.196;2023-03-26T03:16:22;100377.00;;;15.70
20736;BMP180;10528;52.124;5.196;2023-03-26T03:18:49;100371.00;;;15.70
20736;BMP180;10528;52.124;5.196;2023-03-26T03:21:26;100374.00;;;15.70
20736;BMP180;10528;52.124;5.196;2023-03-26T03:23:55;100375.00;;;15.70
20736;BMP180;10528;52.124;5.196;2023-03-26T03:26:27;100373.00;;;15.70
20736;BMP180;10528;52.124;5.196;2023-03-26T03:28:57;100360.00;;;15.70
20736;BMP180;10528;52.124;5.196;2023-03-26T03:31:26;100374.00;;;15.70
20736;BMP180;10528;52.124;5.196;2023-03-26T03:33:59;100368.00;;;15.70
20736;BMP180;10528;52.124;5.196;2023-03-26T03:36:28;100364.00;;;15.70
20736;BMP180;10528;52.124;5.196;2023-03-26T03:39:03;100370.00;;;15.70
20736;BMP180;10528;52.124;5.196;2023-03-26T03:41:31;100351.00;;;15.70
20736;BMP180;10528;52.124;5.196;2023-03-26T03:44:00;100350.00;;;15.70
20736;BMP180;10528;52.124;5.196;2023-03-26T03:46:29;100353.00;;;15.70
20736;BMP180;10528;52.124;5.196;2023-03-26T03:48:56;100356.00;;;15.70
20736;BMP180;10528;52.124;5.196;2023-03-26T03:51:34;100350.00;;;15.70
20736;BMP180;10528;52.124;5.196;2023-03-26T03:54:04;100354.00;;;15.70
20736;BMP180;10528;52.124;5.196;2023-03-26T03:56:58;100356.00;;;15.70
20736;BMP180;10528;52.124;5.196;2023-03-26T03:59:48;100351.00;;;15.70
20736;BMP180;10528;52.124;5.196;2023-03-26T04:02:17;100347.00;;;15.70
20736;BMP180;10528;52.124;5.196;2023-03-26T04:04:56;100338.00;;;15.70
20736;BMP180;10528;52.124;5.196;2023-03-26T04:07:27;100336.00;;;15.70
20736;BMP180;10528;52.124;5.196;2023-03-26T04:10:15;100335.00;;;15.70
20736;BMP180;10528;52.124;5.196;2023-03-26T04:13:00;100326.00;;;15.70
20736;BMP180;10528;52.124;5.196;2023-03-26T04:15:56;100323.00;;;15.70
20736;BMP180;10528;52.124;5.196;2023-03-26T04:18:24;100314.00;;;15.70
20736;BMP180;10528;52.124;5.196;2023-03-26T04:20:52;100320.00;;;15.80
20736;BMP180;10528;52.124;5.196;2023-03-26T04:23:25;100318.00;;;15.80
20736;BMP180;10528;52.124;5.196;2023-03-26T04:26:02;100321.00;;;15.80
20736;BMP180;10528;52.124;5.196;2023-03-26T04:29:05;100307.00;;;15.80
20736;BMP180;10528;52.124;5.196;2023-03-26T04:31:37;100297.00;;;15.80
20736;BMP180;10528;52.124;5.196;2023-03-26T04:34:19;100294.00;;;15.80
20736;BMP180;10528;52.124;5.196;2023-03-26T04:37:20;100296.00;;;15.80
20736;BMP180;10528;52.124;5.196;2023-03-26T04:40:03;100287.00;;;15.80
20736;BMP180;10528;52.124;5.196;2023-03-26T04:42:38;100288.00;;;15.80
20736;BMP180;10528;52.124;5.196;2023-03-26T04:45:18;100278.00;;;15.80
20736;BMP180;10528;52.124;5.196;2023-03-26T04:47:54;100281.00;;;15.80
20736;BMP180;10528;52.124;5.196;2023-03-26T04:50:21;100269.00;;;15.80
20736;BMP180;10528;52.124;5.196;2023-03-26T04:52:48;100261.00;;;15.80
20736;BMP180;10528;52.124;5.196;2023-03-26T04:56:05;100274.00;;;15.80
20736;BMP180;10528;52.124;5.196;2023-03-26T04:58:58;100271.00;;;15.80
20736;BMP180;10528;52.124;5.196;2023-03-26T05:01:26;100263.00;;;15.80
20736;BMP180;10528;52.124;5.196;2023-03-26T05:03:54;100251.00;;;15.80
20736;BMP180;10528;52.124;5.196;2023-03-26T05:06:21;100253.00;;;15.80
20736;BMP180;10528;52.124;5.196;2023-03-26T05:08:48;100249.00;;;15.80
20736;BMP180;10528;52.124;5.196;2023-03-26T05:11:33;100241.00;;;15.80
20736;BMP180;10528;52.124;5.196;2023-03-26T05:13:59;100247.00;;;15.80
20736;BMP180;10528;52.124;5.196;2023-03-26T05:16:27;100243.00;;;15.80
20736;BMP180;10528;52.124;5.196;2023-03-26T05:19:00;100240.00;;;15.80
20736;BMP180;10528;52.124;5.196;2023-03-26T05:21:31;100238.00;;;15.80
20736;BMP180;10528;52.124;5.196;2023-03-26T05:23:59;100234.00;;;15.80
20736;BMP180;10528;52.124;5.196;2023-03-26T05:26:26;100229.00;;;15.70
20736;BMP180;10528;52.124;5.196;2023-03-26T05:28:56;100228.00;;;15.70
20736;BMP180;10528;52.124;5.196;2023-03-26T05:31:35;100216.00;;;15.70
20736;BMP180;10528;52.124;5.196;2023-03-26T05:34:02;100221.00;;;15.70
20736;BMP180;10528;52.124;5.196;2023-03-26T05:36:29;100215.00;;;15.70
20736;BMP180;10528;52.124;5.196;2023-03-26T05:39:25;100218.00;;;15.70
20736;BMP180;10528;52.124;5.196;2023-03-26T05:42:25;100214.00;;;15.70
20736;BMP180;10528;52.124;5.196;2023-03-26T05:45:21;100208.00;;;15.70
20736;BMP180;10528;52.124;5.196;2023-03-26T05:47:50;100206.00;;;15.70
20736;BMP180;10528;52.124;5.196;2023-03-26T05:50:22;100204.00;;;15.70
20736;BMP180;10528;52.124;5.196;2023-03-26T05:52:51;100208.00;;;15.70
20736;BMP180;10528;52.124;5.196;2023-03-26T05:55:48;100195.00;;;15.70
20736;BMP180;10528;52.124;5.196;2023-03-26T05:58:38;100196.00;;;15.60
20736;BMP180;10528;52.124;5.196;2023-03-26T06:01:31;100192.00;;;15.60
20736;BMP180;10528;52.124;5.196;2023-03-26T06:04:20;100185.00;;;15.60
20736;BMP180;10528;52.124;5.196;2023-03-26T06:07:01;100191.00;;;15.60
20736;BMP180;10528;52.124;5.196;2023-03-26T06:09:29;100179.00;;;15.50
20736;BMP180;10528;52.124;5.196;2023-03-26T06:11:56;100185.00;;;15.50
20736;BMP180;10528;52.124;5.196;2023-03-26T06:14:23;100185.00;;;15.50
20736;BMP180;10528;52.124;5.196;2023-03-26T06:17:07;100175.00;;;15.50
20736;BMP180;10528;52.124;5.196;2023-03-26T06:19:54;100172.00;;;15.50
20736;BMP180;10528;52.124;5.196;2023-03-26T06:22:28;100164.00;;;15.50
20736;BMP180;10528;52.124;5.196;2023-03-26T06:25:18;100169.00;;;15.50
20736;BMP180;10528;52.124;5.196;2023-03-26T06:27:54;100168.00;;;15.50
20736;BMP180;10528;52.124;5.196;2023-03-26T06:30:53;100160.00;;;15.40
20736;BMP180;10528;52.124;5.196;2023-03-26T06:33:32;100167.00;;;15.40
20736;BMP180;10528;52.124;5.196;2023-03-26T06:35:59;100156.00;;;15.40
20736;BMP180;10528;52.124;5.196;2023-03-26T06:38:26;100156.00;;;15.40
20736;BMP180;10528;52.124;5.196;2023-03-26T06:40:53;100169.00;;;15.40
20736;BMP180;10528;52.124;5.196;2023-03-26T06:43:23;100167.00;;;15.40
20736;BMP180;10528;52.124;5.196;2023-03-26T06:46:02;100156.00;;;15.30
20736;BMP180;10528;52.124;5.196;2023-03-26T06:48:33;100168.00;;;15.30
20736;BMP180;10528;52.124;5.196;2023-03-26T06:51:26;100157.00;;;15.30
20736;BMP180;10528;52.124;5.196;2023-03-26T06:54:17;100158.00;;;15.30
20736;BMP180;10528;52.124;5.196;2023-03-26T06:56:50;100162.00;;;15.30
20736;BMP180;10528;52.124;5.196;2023-03-26T06:59:20;100158.00;;;15.30
20736;BMP180;10528;52.124;5.196;2023-03-26T07:02:06;100159.00;;;15.30
20736;BMP180;10528;52.124;5.196;2023-03-26T07:04:51;100160.00;;;15.30
20736;BMP180;10528;52.124;5.196;2023-03-26T07:07:37;100164.00;;;15.30
20736;BMP180;10528;52.124;5.196;2023-03-26T07:10:35;100147.00;;;15.30
20736;BMP180;10528;52.124;5.196;2023-03-26T07:13:14;100158.00;;;15.40
20736;BMP180;10528;52.124;5.196;2023-03-26T07:15:59;100155.00;;;15.40
20736;BMP180;10528;52.124;5.196;2023-03-26T07:18:55;100152.00;;;15.40
20736;BMP180;10528;52.124;5.196;2023-03-26T07:21:26;100163.00;;;15.40
20736;BMP180;10528;52.124;5.196;2023-03-26T07:23:53;100151.00;;;15.40
20736;BMP180;10528;52.124;5.196;2023-03-26T07:27:34;100158.00;;;15.30
20736;BMP180;10528;52.124;5.196;2023-03-26T07:30:12;100157.00;;;15.30
20736;BMP180;10528;52.124;5.196;2023-03-26T07:36:56;100143.00;;;15.30
20736;BMP180;10528;52.124;5.196;2023-03-26T07:46:14;100151.00;;;15.30
20736;BMP180;10528;52.124;5.196;2023-03-26T07:49:12;100146.00;;;15.30
20736;BMP180;10528;52.124;5.196;2023-03-26T07:51:58;100144.00;;;15.30
20736;BMP180;10528;52.124;5.196;2023-03-26T07:54:56;100149.00;;;15.30
20736;BMP180;10528;52.124;5.196;2023-03-26T07:58:25;100138.00;;;15.30
20736;BMP180;10528;52.124;5.196;2023-03-26T08:01:52;100146.00;;;15.30
20736;BMP180;10528;52.124;5.196;2023-03-26T08:08:14;100144.00;;;15.30
20736;BMP180;10528;52.124;5.196;2023-03-26T08:11:37;100140.00;;;15.20
20736;BMP180;10528;52.124;5.196;2023-03-26T08:14:47;100139.00;;;15.20
20736;BMP180;10528;52.124;5.196;2023-03-26T08:17:37;100137.00;;;15.20
20736;BMP180;10528;52.124;5.196;2023-03-26T08:20:49;100137.00;;;15.20
20736;BMP180;10528;52.124;5.196;2023-03-26T08:23:43;100131.00;;;15.20
20736;BMP180;10528;52.124;5.196;2023-03-26T08:26:43;100133.00;;;15.20
20736;BMP180;10528;52.124;5.196;2023-03-26T08:29:49;100136.00;;;15.20
20736;BMP180;10528;52.124;5.196;2023-03-26T08:32:20;100133.00;;;15.20
20736;BMP180;10528;52.124;5.196;2023-03-26T08:34:47;100135.00;;;15.20
20736;BMP180;10528;52.124;5.196;2023-03-26T08:37:15;100135.00;;;15.20
20736;BMP180;10528;52.124;5.196;2023-03-26T08:39:42;100139.00;;;15.10
20736;BMP180;10528;52.124;5.196;2023-03-26T08:45:29;100137.00;;;15.00
20736;BMP180;10528;52.124;5.196;2023-03-26T08:48:40;100146.00;;;15.00
20736;BMP180;10528;52.124;5.196;2023-03-26T09:23:02;100141.00;;;14.70
20736;BMP180;10528;52.124;5.196;2023-03-26T09:28:45;100137.00;;;14.70
20736;BMP180;10528;52.124;5.196;2023-03-26T09:37:57;100149.00;;;14.70
20736;BMP180;10528;52.124;5.196;2023-03-26T09:40:37;100147.00;;;14.70
20736;BMP180;10528;52.124;5.196;2023-03-26T09:58:09;100158.00;;;14.60
20736;BMP180;10528;52.124;5.196;2023-03-26T10:00:48;100165.00;;;14.60
20736;BMP180;10528;52.124;5.196;2023-03-26T10:09:02;100168.00;;;14.60
20736;BMP180;10528;52.124;5.196;2023-03-26T10:12:49;100168.00;;;14.60
20736;BMP180;10528;52.124;5.196;2023-03-26T10:21:10;100167.00;;;14.70
20736;BMP180;10528;52.124;5.196;2023-03-26T10:24:06;100176.00;;;14.60
20736;BMP180;10528;52.124;5.196;2023-03-26T10:33:01;100185.00;;;14.60
20736;BMP180;10528;52.124;5.196;2023-03-26T10:36:07;100191.00;;;14.60
20736;BMP180;10528;52.124;5.196;2023-03-26T10:39:07;100193.00;;;14.50
20736;BMP180;10528;52.124;5.196;2023-03-26T10:42:40;100205.00;;;14.50
20736;BMP180;10528;52.124;5.196;2023-03-26T10:45:43;100204.00;;;14.50
20736;BMP180;10528;52.124;5.196;2023-03-26T10:48:56;100203.00;;;14.50
20736;BMP180;10528;52.124;5.196;2023-03-26T10:52:02;100200.00;;;14.40
20736;BMP180;10528;52.124;5.196;2023-03-26T10:54:54;100204.00;;;14.40
20736;BMP180;10528;52.124;5.196;2023-03-26T11:00:25;100204.00;;;14.50
20736;BMP180;10528;52.124;5.196;2023-03-26T11:06:27;100219.00;;;14.50
20736;BMP180;10528;52.124;5.196;2023-03-26T11:11:56;100223.00;;;14.50
20736;BMP180;10528;52.124;5.196;2023-03-26T11:14:52;100218.00;;;14.50
20736;BMP180;10528;52.124;5.196;2023-03-26T11:17:54;100220.00;;;14.50
20736;BMP180;10528;52.124;5.196;2023-03-26T11:25:51;100237.00;;;14.60
20736;BMP180;10528;52.124;5.196;2023-03-26T11:32:08;100232.00;;;14.70
20736;BMP180;10528;52.124;5.196;2023-03-26T11:34:59;100247.00;;;14.70
20736;BMP180;10528;52.124;5.196;2023-03-26T11:37:42;100232.00;;;14.70
20736;BMP180;10528;52.124;5.196;2023-03-26T11:40:22;100248.00;;;14.80
20736;BMP180;10528;52.124;5.196;2023-03-26T11:42:59;100248.00;;;14.70
20736;BMP180;10528;52.124;5.196;2023-03-26T11:45:32;100251.00;;;14.70
20736;BMP180;10528;52.124;5.196;2023-03-26T11:48:13;100248.00;;;14.80
20736;BMP180;10528;52.124;5.196;2023-03-26T11:51:00;100246.00;;;14.80
20736;BMP180;10528;52.124;5.196;2023-03-26T11:53:33;100252.00;;;14.90
20736;BMP180;10528;52.124;5.196;2023-03-26T11:56:14;100243.00;;;14.90
20736;BMP180;10528;52.124;5.196;2023-03-26T11:59:08;100257.00;;;14.90
20736;BMP180;10528;52.124;5.196;2023-03-26T12:04:41;100251.00;;;14.90
20736;BMP180;10528;52.124;5.196;2023-03-26T12:07:34;100264.00;;;14.90
20736;BMP180;10528;52.124;5.196;2023-03-26T12:10:05;100263.00;;;14.90
20736;BMP180;10528;52.124;5.196;2023-03-26T12:12:47;100268.00;;;14.90
20736;BMP180;10528;52.124;5.196;2023-03-26T12:15:17;100266.00;;;15.00
20736;BMP180;10528;52.124;5.196;2023-03-26T12:17:51;100268.00;;;15.00
20736;BMP180;10528;52.124;5.196;2023-03-26T12:23:01;100279.00;;;15.10
20736;BMP180;10528;52.124;5.196;2023-03-26T12:28:15;100272.00;;;15.20
20736;BMP180;10528;52.124;5.196;2023-03-26T12:30:57;100277.00;;;15.20
20736;BMP180;10528;52.124;5.196;2023-03-26T12:33:28;100276.00;;;15.30
20736;BMP180;10528;52.124;5.196;2023-03-26T12:36:21;100287.00;;;15.30
20736;BMP180;10528;52.124;5.196;2023-03-26T12:38:50;100281.00;;;15.30
20736;BMP180;10528;52.124;5.196;2023-03-26T12:41:40;100296.00;;;15.40
20736;BMP180;10528;52.124;5.196;2023-03-26T12:44:43;100290.00;;;15.40
20736;BMP180;10528;52.124;5.196;2023-03-26T12:47:31;100292.00;;;15.50
20736;BMP180;10528;52.124;5.196;2023-03-26T12:50:28;100309.00;;;15.50
20736;BMP180;10528;52.124;5.196;2023-03-26T12:56:30;100305.00;;;15.60
20736;BMP180;10528;52.124;5.196;2023-03-26T12:59:16;100299.00;;;15.70
20736;BMP180;10528;52.124;5.196;2023-03-26T13:04:47;100306.00;;;15.80
20736;BMP180;10528;52.124;5.196;2023-03-26T13:07:56;100321.00;;;15.80
20736;BMP180;10528;52.124;5.196;2023-03-26T13:10:49;100319.00;;;15.70
20736;BMP180;10528;52.124;5.196;2023-03-26T13:13:49;100322.00;;;15.80
20736;BMP180;10528;52.124;5.196;2023-03-26T13:16:26;100311.00;;;15.80
20736;BMP180;10528;52.124;5.196;2023-03-26T13:19:07;100323.00;;;15.80
20736;BMP180;10528;52.124;5.196;2023-03-26T13:25:12;100335.00;;;15.80
20736;BMP180;10528;52.124;5.196;2023-03-26T13:27:56;100335.00;;;15.80
20736;BMP180;10528;52.124;5.196;2023-03-26T13:48:24;100345.00;;;16.00
20736;BMP180;10528;52.124;5.196;2023-03-26T13:56:41;100352.00;;;16.10
20736;BMP180;10528;52.124;5.196;2023-03-26T13:59:37;100363.00;;;16.10
20736;BMP180;10528;52.124;5.196;2023-03-26T14:04:49;100369.00;;;16.10
20736;BMP180;10528;52.124;5.196;2023-03-26T14:07:35;100370.00;;;16.10
20736;BMP180;10528;52.124;5.196;2023-03-26T14:10:24;100372.00;;;16.10
20736;BMP180;10528;52.124;5.196;2023-03-26T14:15:58;100377.00;;;16.00
20736;BMP180;10528;52.124;5.196;2023-03-26T14:19:02;100386.00;;;16.00
20736;BMP180;10528;52.124;5.196;2023-03-26T14:25:12;100388.00;;;16.10
20736;BMP180;10528;52.124;5.196;2023-03-26T14:31:13;100392.00;;;16.00
20736;BMP180;10528;52.124;5.196;2023-03-26T14:34:00;100397.00;;;16.00
20736;BMP180;10528;52.124;5.196;2023-03-26T14:42:41;100423.00;;;16.00
20736;BMP180;10528;52.124;5.196;2023-03-26T14:45:50;100438.00;;;15.90
20736;BMP180;10528;52.124;5.196;2023-03-26T14:54:25;100454.00;;;15.90
20736;BMP180;10528;52.124;5.196;2023-03-26T15:00:48;100455.00;;;15.80
20736;BMP180;10528;52.124;5.196;2023-03-26T15:10:03;100470.00;;;15.80
20736;BMP180;10528;52.124;5.196;2023-03-26T15:13:06;100481.00;;;15.80
20736;BMP180;10528;52.124;5.196;2023-03-26T15:16:10;100469.00;;;15.80
20736;BMP180;10528;52.124;5.196;2023-03-26T15:19:23;100487.00;;;15.70
20736;BMP180;10528;52.124;5.196;2023-03-26T15:34:45;100520.00;;;15.50
20736;BMP180;10528;52.124;5.196;2023-03-26T15:37:53;100511.00;;;15.50
20736;BMP180;10528;52.124;5.196;2023-03-26T15:55:59;100535.00;;;15.30
20736;BMP180;10528;52.124;5.196;2023-03-26T16:04:55;100581.00;;;15.30
20736;BMP180;10528;52.124;5.196;2023-03-26T16:13:23;100577.00;;;15.20
20736;BMP180;10528;52.124;5.196;2023-03-26T16:22:04;100597.00;;;15.00
20736;BMP180;10528;52.124;5.196;2023-03-26T16:24:42;100609.00;;;15.00
20736;BMP180;10528;52.124;5.196;2023-03-26T16:32:43;100618.00;;;14.70
20736;BMP180;10528;52.124;5.196;2023-03-26T16:37:47;100634.00;;;14.70
20736;BMP180;10528;52.124;5.196;2023-03-26T16:48:30;100660.00;;;14.60
20736;BMP180;10528;52.124;5.196;2023-03-26T16:51:19;100671.00;;;14.60
20736;BMP180;10528;52.124;5.196;2023-03-26T16:56:52;100679.00;;;14.50
20736;BMP180;10528;52.124;5.196;2023-03-26T17:05:59;100693.00;;;14.30
20736;BMP180;10528;52.124;5.196;2023-03-26T17:08:53;100701.00;;;14.20
20736;BMP180;10528;52.124;5.196;2023-03-26T17:26:39;100738.00;;;14.00
20736;BMP180;10528;52.124;5.196;2023-03-26T17:32:15;100763.00;;;14.00
20736;BMP180;10528;52.124;5.196;2023-03-26T17:42:26;100757.00;;;14.00
20736;BMP180;10528;52.124;5.196;2023-03-26T17:44:55;100762.00;;;14.00
20736;BMP180;10528;52.124;5.196;2023-03-26T17:47:58;100769.00;;;14.00
20736;BMP180;10528;52.124;5.196;2023-03-26T17:50:55;100781.00;;;13.90
20736;BMP180;10528;52.124;5.196;2023-03-26T17:53:35;100783.00;;;13.90
20736;BMP180;10528;52.124;5.196;2023-03-26T17:56:13;100796.00;;;13.90
20736;BMP180;10528;52.124;5.196;2023-03-26T17:58:46;100796.00;;;13.90
20736;BMP180;10528;52.124;5.196;2023-03-26T18:01:34;100817.00;;;13.90
20736;BMP180;10528;52.124;5.196;2023-03-26T18:04:09;100801.00;;;13.80
20736;BMP180;10528;52.124;5.196;2023-03-26T18:07:00;100818.00;;;13.80
20736;BMP180;10528;52.124;5.196;2023-03-26T18:15:44;100837.00;;;13.60
20736;BMP180;10528;52.124;5.196;2023-03-26T18:18:16;100854.00;;;13.60
20736;BMP180;10528;52.124;5.196;2023-03-26T18:20:48;100849.00;;;13.50
20736;BMP180;10528;52.124;5.196;2023-03-26T18:23:46;100852.00;;;13.50
20736;BMP180;10528;52.124;5.196;2023-03-26T18:28:56;100861.00;;;13.50
20736;BMP180;10528;52.124;5.196;2023-03-26T18:31:33;100864.00;;;13.50
20736;BMP180;10528;52.124;5.196;2023-03-26T18:34:12;100874.00;;;13.50
20736;BMP180;10528;52.124;5.196;2023-03-26T18:36:39;100880.00;;;13.50
20736;BMP180;10528;52.124;5.196;2023-03-26T18:39:11;100874.00;;;13.50
20736;BMP180;10528;52.124;5.196;2023-03-26T18:41:40;100892.00;;;13.50
20736;BMP180;10528;52.124;5.196;2023-03-26T18:44:17;100902.00;;;13.50
20736;BMP180;10528;52.124;5.196;2023-03-26T18:46:45;100907.00;;;13.50
20736;BMP180;10528;52.124;5.196;2023-03-26T18:49:15;100915.00;;;13.40
20736;BMP180;10528;52.124;5.196;2023-03-26T18:51:43;100923.00;;;13.40
20736;BMP180;10528;52.124;5.196;2023-03-26T18:54:29;100927.00;;;13.40
20736;BMP180;10528;52.124;5.196;2023-03-26T18:57:10;100927.00;;;13.30
20736;BMP180;10528;52.124;5.196;2023-03-26T18:59:42;100936.00;;;13.30
20736;BMP180;10528;52.124;5.196;2023-03-26T19:02:12;100939.00;;;13.30
20736;BMP180;10528;52.124;5.196;2023-03-26T19:04:42;100951.00;;;13.20
20736;BMP180;10528;52.124;5.196;2023-03-26T19:07:17;100952.00;;;13.20
20736;BMP180;10528;52.124;5.196;2023-03-26T19:09:49;100963.00;;;13.20
20736;BMP180;10528;52.124;5.196;2023-03-26T19:12:29;100965.00;;;13.10
20736;BMP180;10528;52.124;5.196;2023-03-26T19:15:09;100966.00;;;13.00
20736;BMP180;10528;52.124;5.196;2023-03-26T19:18:02;100968.00;;;13.00
20736;BMP180;10528;52.124;5.196;2023-03-26T19:21:16;100977.00;;;12.90
20736;BMP180;10528;52.124;5.196;2023-03-26T19:23:39;100983.00;;;12.90
20736;BMP180;10528;52.124;5.196;2023-03-26T19:26:08;100986.00;;;12.90
20736;BMP180;10528;52.124;5.196;2023-03-26T19:28:43;100986.00;;;12.80
20736;BMP180;10528;52.124;5.196;2023-03-26T19:33:43;100986.00;;;12.80
20736;BMP180;10528;52.124;5.196;2023-03-26T19:36:23;100996.00;;;12.80
20736;BMP180;10528;52.124;5.196;2023-03-26T19:38:53;100992.00;;;12.80
20736;BMP180;10528;52.124;5.196;2023-03-26T19:41:22;101010.00;;;12.80
20736;BMP180;10528;52.124;5.196;2023-03-26T19:43:55;101010.00;;;12.70
20736;BMP180;10528;52.124;5.196;2023-03-26T19:46:27;101028.00;;;12.70
20736;BMP180;10528;52.124;5.196;2023-03-26T19:48:57;101020.00;;;12.70
20736;BMP180;10528;52.124;5.196;2023-03-26T19:51:35;101023.00;;;12.60
20736;BMP180;10528;52.124;5.196;2023-03-26T19:54:13;101034.00;;;12.60
20736;BMP180;10528;52.124;5.196;2023-03-26T19:56:41;101038.00;;;12.60
20736;BMP180;10528;52.124;5.196;2023-03-26T19:59:09;101040.00;;;12.50
20736;BMP180;10528;52.124;5.196;2023-03-26T20:01:36;101040.00;;;12.50
20736;BMP180;10528;52.124;5.196;2023-03-26T20:04:08;101033.00;;;12.50
20736;BMP180;10528;52.124;5.196;2023-03-26T20:06:35;101047.00;;;12.50
20736;BMP180;10528;52.124;5.196;2023-03-26T20:09:12;101060.00;;;12.50
20736;BMP180;10528;52.124;5.196;2023-03-26T20:11:40;101061.00;;;12.50
20736;BMP180;10528;52.124;5.196;2023-03-26T20:14:17;101053.00;;;12.50
20736;BMP180;10528;52.124;5.196;2023-03-26T20:16:51;101067.00;;;12.50
20736;BMP180;10528;52.124;5.196;2023-03-26T20:19:18;101065.00;;;12.50
20736;BMP180;10528;52.124;5.196;2023-03-26T20:21:46;101068.00;;;12.50
20736;BMP180;10528;52.124;5.196;2023-03-26T20:24:16;101076.00;;;12.50